sensor_id;sensor_type;location;lat;lon;timestamp;temperature;humidity
31967;DHT22;18496;52.042;6.812;2023-01-19T00:02:00;3.70;99.90
31967;DHT22;18496;52.042;6.812;2023-01-19T00:04:04;3.80;99.90
31967;DHT22;18496;52.042;6.812;2023-01-19T00:06:08;3.80;99.90
31967;DHT22;18496;52.042;6.812;2023-01-19T00:08:11;3.70;99.90
31967;DHT22;18496;52.042;6.812;2023-01-19T00:10:18;3.80;99.90
31967;DHT22;18496;52.042;6.812;2023-01-19T00:12:21;3.70;99.90
31967;DHT22;18496;52.042;6.812;2023-01-19T00:14:25;3.70;99.90
31967;DHT22;18496;52.042;6.812;2023-01-19T00:16:29;3.70;99.90
31967;DHT22;18496;52.042;6.812;2023-01-19T00:18:32;3.70;99.90
31967;DHT22;18496;52.042;6.812;2023-01-19T00:20:36;3.70;99.90
31967;DHT22;18496;52.042;6.812;2023-01-19T00:22:40;3.70;99.90
31967;DHT22;18496;52.042;6.812;2023-01-19T00:24:43;3.70;99.90
31967;DHT22;18496;52.042;6.812;2023-01-19T00:26:47;3.60;99.90
31967;DHT22;18496;52.042;6.812;2023-01-19T00:28:51;3.60;99.90
31967;DHT22;18496;52.042;6.812;2023-01-19T00:30:55;3.60;99.90
31967;DHT22;18496;52.042;6.812;2023-01-19T00:32:58;3.60;99.90
31967;DHT22;18496;52.042;6.812;2023-01-19T00:35:02;3.50;99.90
31967;DHT22;18496;52.042;6.812;2023-01-19T00:37:06;3.50;99.90
31967;DHT22;18496;52.042;6.812;2023-01-19T00:39:09;3.50;99.90
31967;DHT22;18496;52.042;6.812;2023-01-19T00:41:13;3.50;99.90
31967;DHT22;18496;52.042;6.812;2023-01-19T00:43:20;3.50;99.90
31967;DHT22;18496;52.042;6.812;2023-01-19T00:45:23;3.60;99.90
31967;DHT22;18496;52.042;6.812;2023-01-19T00:47:27;3.50;99.90
31967;DHT22;18496;52.042;6.812;2023-01-19T00:49:30;3.50;99.90
31967;DHT22;18496;52.042;6.812;2023-01-19T00:51:34;3.60;99.90
31967;DHT22;18496;52.042;6.812;2023-01-19T00:53:37;3.50;99.90
31967;DHT22;18496;52.042;6.812;2023-01-19T00:55:41;3.50;99.90
31967;DHT22;18496;52.042;6.812;2023-01-19T00:57:45;3.50;99.90
31967;DHT22;18496;52.042;6.812;2023-01-19T00:59:48;3.50;99.90
31967;DHT22;18496;52.042;6.812;2023-01-19T01:01:52;3.60;99.90
31967;DHT22;18496;52.042;6.812;2023-01-19T01:03:55;3.60;99.90
31967;DHT22;18496;52.042;6.812;2023-01-19T01:05:59;3.60;99.90
31967;DHT22;18496;52.042;6.812;2023-01-19T01:08:02;3.60;99.90
31967;DHT22;18496;52.042;6.812;2023-01-19T01:10:07;3.60;99.90
31967;DHT22;18496;52.042;6.812;2023-01-19T01:12:11;3.60;99.90
31967;DHT22;18496;52.042;6.812;2023-01-19T01:14:15;3.60;99.90
31967;DHT22;18496;52.042;6.812;2023-01-19T01:16:18;3.60;99.90
31967;DHT22;18496;52.042;6.812;2023-01-19T01:18:22;3.60;99.90
31967;DHT22;18496;52.042;6.812;2023-01-19T01:20:26;3.60;99.90
31967;DHT22;18496;52.042;6.812;2023-01-19T01:22:30;3.60;99.90
31967;DHT22;18496;52.042;6.812;2023-01-19T01:24:34;3.60;99.90
31967;DHT22;18496;52.042;6.812;2023-01-19T01:26:38;3.60;99.90
31967;DHT22;18496;52.042;6.812;2023-01-19T01:28:41;3.70;99.90
31967;DHT22;18496;52.042;6.812;2023-01-19T01:30:45;3.70;99.90
31967;DHT22;18496;52.042;6.812;2023-01-19T01:32:49;3.70;99.90
31967;DHT22;18496;52.042;6.812;2023-01-19T01:34:52;3.70;99.90
31967;DHT22;18496;52.042;6.812;2023-01-19T01:36:56;3.70;99.90
31967;DHT22;18496;52.042;6.812;2023-01-19T01:38:59;3.60;99.90
31967;DHT22;18496;52.042;6.812;2023-01-19T01:41:03;3.60;99.90
31967;DHT22;18496;52.042;6.812;2023-01-19T01:43:10;3.70;99.90
31967;DHT22;18496;52.042;6.812;2023-01-19T01:45:25;3.70;99.90
31967;DHT22;18496;52.042;6.812;2023-01-19T01:47:38;3.70;99.90
31967;DHT22;18496;52.042;6.812;2023-01-19T01:49:43;3.60;99.90
31967;DHT22;18496;52.042;6.812;2023-01-19T01:51:48;3.60;99.90
31967;DHT22;18496;52.042;6.812;2023-01-19T01:55:57;3.60;99.90
31967;DHT22;18496;52.042;6.812;2023-01-19T01:58:02;3.60;99.90
31967;DHT22;18496;52.042;6.812;2023-01-19T02:00:07;3.60;99.90
31967;DHT22;18496;52.042;6.812;2023-01-19T02:02:13;3.60;99.90
31967;DHT22;18496;52.042;6.812;2023-01-19T02:04:37;3.60;99.90
31967;DHT22;18496;52.042;6.812;2023-01-19T02:06:42;3.60;99.90
31967;DHT22;18496;52.042;6.812;2023-01-19T02:09:06;3.50;99.90
31967;DHT22;18496;52.042;6.812;2023-01-19T02:11:30;3.50;99.90
31967;DHT22;18496;52.042;6.812;2023-01-19T02:13:52;3.60;99.90
31967;DHT22;18496;52.042;6.812;2023-01-19T02:15:57;3.50;99.90
31967;DHT22;18496;52.042;6.812;2023-01-19T02:18:01;3.50;99.90
31967;DHT22;18496;52.042;6.812;2023-01-19T02:20:05;3.50;99.90
31967;DHT22;18496;52.042;6.812;2023-01-19T02:24:15;3.50;99.90
31967;DHT22;18496;52.042;6.812;2023-01-19T02:26:20;3.50;99.90
31967;DHT22;18496;52.042;6.812;2023-01-19T02:28:24;3.50;99.90
31967;DHT22;18496;52.042;6.812;2023-01-19T02:30:29;3.50;99.90
31967;DHT22;18496;52.042;6.812;2023-01-19T02:32:32;3.50;99.90
31967;DHT22;18496;52.042;6.812;2023-01-19T02:34:36;3.50;99.90
31967;DHT22;18496;52.042;6.812;2023-01-19T02:36:41;3.50;99.90
31967;DHT22;18496;52.042;6.812;2023-01-19T02:38:46;3.50;99.90
31967;DHT22;18496;52.042;6.812;2023-01-19T02:40:51;3.50;99.90
31967;DHT22;18496;52.042;6.812;2023-01-19T02:42:55;3.60;99.90
31967;DHT22;18496;52.042;6.812;2023-01-19T02:45:00;3.60;99.90
31967;DHT22;18496;52.042;6.812;2023-01-19T02:47:08;3.60;99.90
31967;DHT22;18496;52.042;6.812;2023-01-19T02:49:12;3.60;99.90
31967;DHT22;18496;52.042;6.812;2023-01-19T02:51:16;3.60;99.90
31967;DHT22;18496;52.042;6.812;2023-01-19T02:55:25;3.70;99.90
31967;DHT22;18496;52.042;6.812;2023-01-19T03:04:03;3.70;99.90
31967;DHT22;18496;52.042;6.812;2023-01-19T03:06:17;3.70;99.90
31967;DHT22;18496;52.042;6.812;2023-01-19T03:08:29;3.70;99.90
31967;DHT22;18496;52.042;6.812;2023-01-19T03:13:08;3.70;99.90
31967;DHT22;18496;52.042;6.812;2023-01-19T03:15:20;3.70;99.90
31967;DHT22;18496;52.042;6.812;2023-01-19T03:17:25;3.70;99.90
31967;DHT22;18496;52.042;6.812;2023-01-19T03:19:32;3.60;99.90
31967;DHT22;18496;52.042;6.812;2023-01-19T03:21:36;3.60;99.90
31967;DHT22;18496;52.042;6.812;2023-01-19T03:23:42;3.60;99.90
31967;DHT22;18496;52.042;6.812;2023-01-19T03:25:47;3.60;99.90
31967;DHT22;18496;52.042;6.812;2023-01-19T03:27:52;3.60;99.90
31967;DHT22;18496;52.042;6.812;2023-01-19T03:29:58;3.50;99.90
31967;DHT22;18496;52.042;6.812;2023-01-19T03:32:06;3.50;99.90
31967;DHT22;18496;52.042;6.812;2023-01-19T03:34:12;3.50;99.90
31967;DHT22;18496;52.042;6.812;2023-01-19T03:37:02;3.50;99.90
31967;DHT22;18496;52.042;6.812;2023-01-19T03:38:40;3.40;99.90
31967;DHT22;18496;52.042;6.812;2023-01-19T03:40:45;3.40;99.90
31967;DHT22;18496;52.042;6.812;2023-01-19T03:42:49;3.40;99.90
31967;DHT22;18496;52.042;6.812;2023-01-19T03:44:54;3.30;99.90
31967;DHT22;18496;52.042;6.812;2023-01-19T03:46:58;3.30;99.90
31967;DHT22;18496;52.042;6.812;2023-01-19T03:49:03;3.30;99.90
31967;DHT22;18496;52.042;6.812;2023-01-19T03:51:07;3.30;99.90
31967;DHT22;18496;52.042;6.812;2023-01-19T03:53:12;3.30;99.90
31967;DHT22;18496;52.042;6.812;2023-01-19T03:55:15;3.30;99.90
31967;DHT22;18496;52.042;6.812;2023-01-19T03:57:19;3.30;99.90
31967;DHT22;18496;52.042;6.812;2023-01-19T03:59:23;3.20;99.90
31967;DHT22;18496;52.042;6.812;2023-01-19T04:01:26;3.20;99.90
31967;DHT22;18496;52.042;6.812;2023-01-19T04:03:30;3.20;99.90
31967;DHT22;18496;52.042;6.812;2023-01-19T04:05:33;3.20;99.90
31967;DHT22;18496;52.042;6.812;2023-01-19T04:07:37;3.20;99.90
31967;DHT22;18496;52.042;6.812;2023-01-19T04:09:40;3.10;99.90
31967;DHT22;18496;52.042;6.812;2023-01-19T04:11:44;3.20;99.90
31967;DHT22;18496;52.042;6.812;2023-01-19T04:13:47;3.10;99.90
31967;DHT22;18496;52.042;6.812;2023-01-19T04:15:52;3.10;99.90
31967;DHT22;18496;52.042;6.812;2023-01-19T04:17:56;3.00;99.90
31967;DHT22;18496;52.042;6.812;2023-01-19T04:20:00;3.00;99.90
31967;DHT22;18496;52.042;6.812;2023-01-19T04:22:04;3.00;99.90
31967;DHT22;18496;52.042;6.812;2023-01-19T04:24:08;3.00;99.90
31967;DHT22;18496;52.042;6.812;2023-01-19T04:26:12;2.90;99.90
31967;DHT22;18496;52.042;6.812;2023-01-19T04:28:15;2.90;99.90
31967;DHT22;18496;52.042;6.812;2023-01-19T04:30:19;3.00;99.90
31967;DHT22;18496;52.042;6.812;2023-01-19T04:32:23;2.90;99.90
31967;DHT22;18496;52.042;6.812;2023-01-19T04:34:26;2.90;99.90
31967;DHT22;18496;52.042;6.812;2023-01-19T04:36:30;2.90;99.90
31967;DHT22;18496;52.042;6.812;2023-01-19T04:38:33;3.00;99.90
31967;DHT22;18496;52.042;6.812;2023-01-19T04:40:37;2.90;99.90
31967;DHT22;18496;52.042;6.812;2023-01-19T04:42:44;3.00;99.90
31967;DHT22;18496;52.042;6.812;2023-01-19T04:44:48;3.00;99.90
31967;DHT22;18496;52.042;6.812;2023-01-19T04:46:51;2.90;99.90
31967;DHT22;18496;52.042;6.812;2023-01-19T04:48:55;3.00;99.90
31967;DHT22;18496;52.042;6.812;2023-01-19T04:50:58;3.00;99.90
31967;DHT22;18496;52.042;6.812;2023-01-19T04:53:02;3.00;99.90
31967;DHT22;18496;52.042;6.812;2023-01-19T04:55:06;3.00;99.90
31967;DHT22;18496;52.042;6.812;2023-01-19T04:57:09;3.10;99.90
31967;DHT22;18496;52.042;6.812;2023-01-19T04:59:13;3.10;99.90
31967;DHT22;18496;52.042;6.812;2023-01-19T05:01:17;3.10;99.90
31967;DHT22;18496;52.042;6.812;2023-01-19T05:03:20;3.10;99.90
31967;DHT22;18496;52.042;6.812;2023-01-19T05:05:24;3.10;99.90
31967;DHT22;18496;52.042;6.812;2023-01-19T05:07:29;3.10;99.90
31967;DHT22;18496;52.042;6.812;2023-01-19T05:09:33;3.10;99.90
31967;DHT22;18496;52.042;6.812;2023-01-19T05:11:37;3.10;99.90
31967;DHT22;18496;52.042;6.812;2023-01-19T05:13:41;3.10;99.90
31967;DHT22;18496;52.042;6.812;2023-01-19T05:15:44;3.10;99.90
31967;DHT22;18496;52.042;6.812;2023-01-19T05:17:48;3.10;99.90
31967;DHT22;18496;52.042;6.812;2023-01-19T05:19:52;3.10;99.90
31967;DHT22;18496;52.042;6.812;2023-01-19T05:21:55;3.20;99.90
31967;DHT22;18496;52.042;6.812;2023-01-19T05:23:59;3.20;99.90
31967;DHT22;18496;52.042;6.812;2023-01-19T05:26:03;3.20;99.90
31967;DHT22;18496;52.042;6.812;2023-01-19T05:28:06;3.20;99.90
31967;DHT22;18496;52.042;6.812;2023-01-19T05:30:10;3.30;99.90
31967;DHT22;18496;52.042;6.812;2023-01-19T05:32:15;3.30;99.90
31967;DHT22;18496;52.042;6.812;2023-01-19T05:34:18;3.20;99.90
31967;DHT22;18496;52.042;6.812;2023-01-19T05:36:22;3.20;99.90
31967;DHT22;18496;52.042;6.812;2023-01-19T05:38:26;3.20;99.90
31967;DHT22;18496;52.042;6.812;2023-01-19T05:40:29;3.20;99.90
31967;DHT22;18496;52.042;6.812;2023-01-19T05:42:33;3.20;99.90
31967;DHT22;18496;52.042;6.812;2023-01-19T05:44:37;3.20;99.90
31967;DHT22;18496;52.042;6.812;2023-01-19T05:46:40;3.10;99.90
31967;DHT22;18496;52.042;6.812;2023-01-19T05:48:44;3.10;99.90
31967;DHT22;18496;52.042;6.812;2023-01-19T05:50:47;3.10;99.90
31967;DHT22;18496;52.042;6.812;2023-01-19T05:52:51;3.10;99.90
31967;DHT22;18496;52.042;6.812;2023-01-19T05:54:55;3.20;99.90
31967;DHT22;18496;52.042;6.812;2023-01-19T05:56:59;3.10;99.90
31967;DHT22;18496;52.042;6.812;2023-01-19T05:59:02;3.10;99.90
31967;DHT22;18496;52.042;6.812;2023-01-19T06:01:07;3.10;99.90
31967;DHT22;18496;52.042;6.812;2023-01-19T06:03:11;3.10;99.90
31967;DHT22;18496;52.042;6.812;2023-01-19T06:05:15;3.10;99.90
31967;DHT22;18496;52.042;6.812;2023-01-19T06:07:19;3.10;99.90
31967;DHT22;18496;52.042;6.812;2023-01-19T06:09:22;3.10;99.90
31967;DHT22;18496;52.042;6.812;2023-01-19T06:11:26;3.10;99.90
31967;DHT22;18496;52.042;6.812;2023-01-19T06:13:30;3.10;99.90
31967;DHT22;18496;52.042;6.812;2023-01-19T06:15:34;3.10;99.90
31967;DHT22;18496;52.042;6.812;2023-01-19T06:17:37;3.10;99.90
31967;DHT22;18496;52.042;6.812;2023-01-19T06:19:41;3.10;99.90
31967;DHT22;18496;52.042;6.812;2023-01-19T06:21:48;3.00;99.90
31967;DHT22;18496;52.042;6.812;2023-01-19T06:23:52;3.00;99.90
31967;DHT22;18496;52.042;6.812;2023-01-19T06:25:55;3.00;99.90
31967;DHT22;18496;52.042;6.812;2023-01-19T06:27:59;3.00;99.90
31967;DHT22;18496;52.042;6.812;2023-01-19T06:30:03;3.00;99.90
31967;DHT22;18496;52.042;6.812;2023-01-19T06:32:06;3.00;99.90
31967;DHT22;18496;52.042;6.812;2023-01-19T06:34:10;3.00;99.90
31967;DHT22;18496;52.042;6.812;2023-01-19T06:36:13;3.00;99.90
31967;DHT22;18496;52.042;6.812;2023-01-19T06:38:17;3.10;99.90
31967;DHT22;18496;52.042;6.812;2023-01-19T06:40:21;3.10;99.90
31967;DHT22;18496;52.042;6.812;2023-01-19T06:42:25;3.00;99.90
31967;DHT22;18496;52.042;6.812;2023-01-19T06:44:28;3.00;99.90
31967;DHT22;18496;52.042;6.812;2023-01-19T06:46:32;3.00;99.90
31967;DHT22;18496;52.042;6.812;2023-01-19T06:48:37;3.00;99.90
31967;DHT22;18496;52.042;6.812;2023-01-19T06:50:40;3.00;99.90
31967;DHT22;18496;52.042;6.812;2023-01-19T06:52:48;3.00;99.90
31967;DHT22;18496;52.042;6.812;2023-01-19T06:54:51;3.00;99.90
31967;DHT22;18496;52.042;6.812;2023-01-19T06:56:55;3.00;99.90
31967;DHT22;18496;52.042;6.812;2023-01-19T06:58:58;3.00;99.90
31967;DHT22;18496;52.042;6.812;2023-01-19T07:01:02;3.00;99.90
31967;DHT22;18496;52.042;6.812;2023-01-19T07:03:07;3.00;99.90
31967;DHT22;18496;52.042;6.812;2023-01-19T07:05:11;3.00;99.90
31967;DHT22;18496;52.042;6.812;2023-01-19T07:07:16;3.00;99.90
31967;DHT22;18496;52.042;6.812;2023-01-19T07:09:20;3.00;99.90
31967;DHT22;18496;52.042;6.812;2023-01-19T07:11:23;3.00;99.90
31967;DHT22;18496;52.042;6.812;2023-01-19T07:13:27;3.00;99.90
31967;DHT22;18496;52.042;6.812;2023-01-19T07:15:30;3.00;99.90
31967;DHT22;18496;52.042;6.812;2023-01-19T07:17:34;3.00;99.90
31967;DHT22;18496;52.042;6.812;2023-01-19T07:19:38;3.00;99.90
31967;DHT22;18496;52.042;6.812;2023-01-19T07:21:41;3.00;99.90
31967;DHT22;18496;52.042;6.812;2023-01-19T07:23:48;3.10;99.90
31967;DHT22;18496;52.042;6.812;2023-01-19T07:25:52;3.10;99.90
31967;DHT22;18496;52.042;6.812;2023-01-19T07:27:57;3.10;99.90
31967;DHT22;18496;52.042;6.812;2023-01-19T07:30:00;3.10;99.90
31967;DHT22;18496;52.042;6.812;2023-01-19T07:32:04;3.20;99.90
31967;DHT22;18496;52.042;6.812;2023-01-19T07:34:08;3.20;99.90
31967;DHT22;18496;52.042;6.812;2023-01-19T07:36:12;3.20;99.90
31967;DHT22;18496;52.042;6.812;2023-01-19T07:38:16;3.30;99.90
31967;DHT22;18496;52.042;6.812;2023-01-19T07:40:20;3.30;99.90
31967;DHT22;18496;52.042;6.812;2023-01-19T07:42:23;3.30;99.90
31967;DHT22;18496;52.042;6.812;2023-01-19T07:44:27;3.30;99.90
31967;DHT22;18496;52.042;6.812;2023-01-19T07:46:31;3.30;99.90
31967;DHT22;18496;52.042;6.812;2023-01-19T07:48:34;3.40;99.90
31967;DHT22;18496;52.042;6.812;2023-01-19T07:50:38;3.40;99.90
31967;DHT22;18496;52.042;6.812;2023-01-19T07:52:42;3.40;99.90
31967;DHT22;18496;52.042;6.812;2023-01-19T07:54:45;3.40;99.90
31967;DHT22;18496;52.042;6.812;2023-01-19T07:56:53;3.40;99.90
31967;DHT22;18496;52.042;6.812;2023-01-19T07:58:57;3.40;99.90
31967;DHT22;18496;52.042;6.812;2023-01-19T08:01:11;3.40;99.90
31967;DHT22;18496;52.042;6.812;2023-01-19T08:03:15;3.40;99.90
31967;DHT22;18496;52.042;6.812;2023-01-19T08:05:20;3.40;99.90
31967;DHT22;18496;52.042;6.812;2023-01-19T08:07:23;3.50;99.90
31967;DHT22;18496;52.042;6.812;2023-01-19T08:09:27;3.50;99.90
31967;DHT22;18496;52.042;6.812;2023-01-19T08:11:30;3.50;99.90
31967;DHT22;18496;52.042;6.812;2023-01-19T08:13:34;3.50;99.90
31967;DHT22;18496;52.042;6.812;2023-01-19T08:15:38;3.50;99.90
31967;DHT22;18496;52.042;6.812;2023-01-19T08:17:44;3.50;99.90
31967;DHT22;18496;52.042;6.812;2023-01-19T08:19:48;3.50;99.90
31967;DHT22;18496;52.042;6.812;2023-01-19T08:21:51;3.60;99.90
31967;DHT22;18496;52.042;6.812;2023-01-19T08:23:55;3.60;99.90
31967;DHT22;18496;52.042;6.812;2023-01-19T08:26:16;3.60;99.90
31967;DHT22;18496;52.042;6.812;2023-01-19T08:28:19;3.60;99.90
31967;DHT22;18496;52.042;6.812;2023-01-19T08:30:23;3.70;99.90
31967;DHT22;18496;52.042;6.812;2023-01-19T08:32:29;3.70;99.90
31967;DHT22;18496;52.042;6.812;2023-01-19T08:34:32;3.70;99.90
31967;DHT22;18496;52.042;6.812;2023-01-19T08:36:36;3.70;99.90
31967;DHT22;18496;52.042;6.812;2023-01-19T08:38:39;3.70;99.90
31967;DHT22;18496;52.042;6.812;2023-01-19T08:40:45;3.70;99.90
31967;DHT22;18496;52.042;6.812;2023-01-19T08:42:50;3.80;99.90
31967;DHT22;18496;52.042;6.812;2023-01-19T08:44:54;3.70;99.90
31967;DHT22;18496;52.042;6.812;2023-01-19T08:46:58;3.80;99.90
31967;DHT22;18496;52.042;6.812;2023-01-19T08:49:02;3.70;99.90
31967;DHT22;18496;52.042;6.812;2023-01-19T08:51:05;3.70;99.90
31967;DHT22;18496;52.042;6.812;2023-01-19T08:53:09;3.70;99.90
31967;DHT22;18496;52.042;6.812;2023-01-19T08:55:12;3.80;99.90
31967;DHT22;18496;52.042;6.812;2023-01-19T08:57:16;3.70;99.90
31967;DHT22;18496;52.042;6.812;2023-01-19T08:59:19;3.70;99.90
31967;DHT22;18496;52.042;6.812;2023-01-19T09:01:23;3.70;99.90
31967;DHT22;18496;52.042;6.812;2023-01-19T09:03:27;3.70;99.90
31967;DHT22;18496;52.042;6.812;2023-01-19T09:05:31;3.70;99.90
31967;DHT22;18496;52.042;6.812;2023-01-19T09:07:39;3.70;99.90
31967;DHT22;18496;52.042;6.812;2023-01-19T09:09:43;3.70;99.90
31967;DHT22;18496;52.042;6.812;2023-01-19T09:11:47;3.70;99.90
31967;DHT22;18496;52.042;6.812;2023-01-19T09:13:51;3.70;99.90
31967;DHT22;18496;52.042;6.812;2023-01-19T09:15:55;3.70;99.90
31967;DHT22;18496;52.042;6.812;2023-01-19T09:17:58;3.70;99.90
31967;DHT22;18496;52.042;6.812;2023-01-19T09:20:02;3.70;99.90
31967;DHT22;18496;52.042;6.812;2023-01-19T09:22:06;3.70;99.90
31967;DHT22;18496;52.042;6.812;2023-01-19T09:24:10;3.70;99.90
31967;DHT22;18496;52.042;6.812;2023-01-19T09:26:15;3.70;99.90
31967;DHT22;18496;52.042;6.812;2023-01-19T09:28:18;3.80;99.90
31967;DHT22;18496;52.042;6.812;2023-01-19T09:30:22;3.80;99.90
31967;DHT22;18496;52.042;6.812;2023-01-19T09:32:26;3.80;99.90
31967;DHT22;18496;52.042;6.812;2023-01-19T09:34:29;3.80;99.90
31967;DHT22;18496;52.042;6.812;2023-01-19T09:36:33;3.80;99.90
31967;DHT22;18496;52.042;6.812;2023-01-19T09:38:39;3.80;99.90
31967;DHT22;18496;52.042;6.812;2023-01-19T09:40:44;3.80;99.90
31967;DHT22;18496;52.042;6.812;2023-01-19T09:42:52;3.80;99.90
31967;DHT22;18496;52.042;6.812;2023-01-19T09:44:58;3.80;99.90
31967;DHT22;18496;52.042;6.812;2023-01-19T09:47:02;3.80;99.90
31967;DHT22;18496;52.042;6.812;2023-01-19T09:49:20;3.80;99.90
31967;DHT22;18496;52.042;6.812;2023-01-19T09:51:31;3.80;99.90
31967;DHT22;18496;52.042;6.812;2023-01-19T09:54:27;3.80;99.90
31967;DHT22;18496;52.042;6.812;2023-01-19T09:56:03;3.90;99.90
31967;DHT22;18496;52.042;6.812;2023-01-19T09:58:13;3.90;99.90
31967;DHT22;18496;52.042;6.812;2023-01-19T10:00:19;3.90;99.90
31967;DHT22;18496;52.042;6.812;2023-01-19T10:02:34;4.00;99.90
31967;DHT22;18496;52.042;6.812;2023-01-19T10:04:39;4.00;99.90
31967;DHT22;18496;52.042;6.812;2023-01-19T10:06:43;4.00;99.90
31967;DHT22;18496;52.042;6.812;2023-01-19T10:10:52;4.10;99.90
31967;DHT22;18496;52.042;6.812;2023-01-19T10:17:57;4.20;99.90
31967;DHT22;18496;52.042;6.812;2023-01-19T10:19:55;4.30;99.90
31967;DHT22;18496;52.042;6.812;2023-01-19T10:22:15;4.30;99.90
31967;DHT22;18496;52.042;6.812;2023-01-19T10:24:27;4.40;99.90
31967;DHT22;18496;52.042;6.812;2023-01-19T10:26:33;4.40;99.90
31967;DHT22;18496;52.042;6.812;2023-01-19T10:28:38;4.40;99.90
31967;DHT22;18496;52.042;6.812;2023-01-19T10:30:43;4.40;99.90
31967;DHT22;18496;52.042;6.812;2023-01-19T10:32:47;4.40;99.90
31967;DHT22;18496;52.042;6.812;2023-01-19T10:34:51;4.50;99.90
31967;DHT22;18496;52.042;6.812;2023-01-19T10:36:58;4.50;99.90
31967;DHT22;18496;52.042;6.812;2023-01-19T10:39:05;4.50;99.90
31967;DHT22;18496;52.042;6.812;2023-01-19T10:41:11;4.50;99.90
31967;DHT22;18496;52.042;6.812;2023-01-19T10:45:39;4.60;99.90
31967;DHT22;18496;52.042;6.812;2023-01-19T10:47:43;4.70;99.90
31967;DHT22;18496;52.042;6.812;2023-01-19T10:49:47;4.70;99.90
31967;DHT22;18496;52.042;6.812;2023-01-19T10:51:51;4.80;99.90
31967;DHT22;18496;52.042;6.812;2023-01-19T10:54:02;4.80;99.90
31967;DHT22;18496;52.042;6.812;2023-01-19T10:58:29;4.90;99.90
31967;DHT22;18496;52.042;6.812;2023-01-19T11:00:39;4.90;99.90
31967;DHT22;18496;52.042;6.812;2023-01-19T11:02:48;4.90;99.90
31967;DHT22;18496;52.042;6.812;2023-01-19T11:04:53;5.00;99.90
31967;DHT22;18496;52.042;6.812;2023-01-19T11:07:12;5.00;99.90
31967;DHT22;18496;52.042;6.812;2023-01-19T11:09:17;5.00;99.90
31967;DHT22;18496;52.042;6.812;2023-01-19T11:11:22;5.00;99.90
31967;DHT22;18496;52.042;6.812;2023-01-19T11:13:26;5.00;99.90
31967;DHT22;18496;52.042;6.812;2023-01-19T11:15:34;5.00;99.90
31967;DHT22;18496;52.042;6.812;2023-01-19T11:17:38;5.00;99.90
31967;DHT22;18496;52.042;6.812;2023-01-19T11:19:57;5.10;99.90
31967;DHT22;18496;52.042;6.812;2023-01-19T11:22:09;5.10;99.90
31967;DHT22;18496;52.042;6.812;2023-01-19T11:24:13;5.10;99.90
31967;DHT22;18496;52.042;6.812;2023-01-19T11:26:29;5.20;99.90
31967;DHT22;18496;52.042;6.812;2023-01-19T11:28:42;5.20;99.90
31967;DHT22;18496;52.042;6.812;2023-01-19T11:30:58;5.30;99.90
31967;DHT22;18496;52.042;6.812;2023-01-19T11:33:03;5.30;99.90
31967;DHT22;18496;52.042;6.812;2023-01-19T11:37:29;5.40;99.90
31967;DHT22;18496;52.042;6.812;2023-01-19T11:39:55;5.50;99.90
31967;DHT22;18496;52.042;6.812;2023-01-19T11:41:58;5.50;99.90
31967;DHT22;18496;52.042;6.812;2023-01-19T11:46:27;5.60;99.90
31967;DHT22;18496;52.042;6.812;2023-01-19T11:48:52;5.60;99.90
31967;DHT22;18496;52.042;6.812;2023-01-19T11:51:00;5.60;99.90
31967;DHT22;18496;52.042;6.812;2023-01-19T11:53:26;5.60;99.90
31967;DHT22;18496;52.042;6.812;2023-01-19T11:55:38;5.70;99.90
31967;DHT22;18496;52.042;6.812;2023-01-19T11:57:44;5.70;99.90
31967;DHT22;18496;52.042;6.812;2023-01-19T11:59:48;5.70;99.90
31967;DHT22;18496;52.042;6.812;2023-01-19T12:01:52;5.80;99.90
31967;DHT22;18496;52.042;6.812;2023-01-19T12:04:12;5.80;99.90
31967;DHT22;18496;52.042;6.812;2023-01-19T12:06:21;5.80;99.90
31967;DHT22;18496;52.042;6.812;2023-01-19T12:08:28;5.90;99.90
31967;DHT22;18496;52.042;6.812;2023-01-19T12:10:34;5.90;99.90
31967;DHT22;18496;52.042;6.812;2023-01-19T12:12:39;5.90;99.90
31967;DHT22;18496;52.042;6.812;2023-01-19T12:14:49;5.90;99.90
31967;DHT22;18496;52.042;6.812;2023-01-19T12:16:56;6.00;99.90
31967;DHT22;18496;52.042;6.812;2023-01-19T12:19:02;6.00;99.90
31967;DHT22;18496;52.042;6.812;2023-01-19T12:21:07;6.00;99.90
31967;DHT22;18496;52.042;6.812;2023-01-19T12:23:28;6.00;99.90
31967;DHT22;18496;52.042;6.812;2023-01-19T12:27:58;6.10;99.90
31967;DHT22;18496;52.042;6.812;2023-01-19T12:30:02;6.10;99.90
31967;DHT22;18496;52.042;6.812;2023-01-19T12:40:47;6.10;99.90
31967;DHT22;18496;52.042;6.812;2023-01-19T12:42:58;6.20;99.90
31967;DHT22;18496;52.042;6.812;2023-01-19T12:45:06;6.20;99.90
31967;DHT22;18496;52.042;6.812;2023-01-19T12:51:25;6.10;99.90
31967;DHT22;18496;52.042;6.812;2023-01-19T12:53:28;6.10;99.90
31967;DHT22;18496;52.042;6.812;2023-01-19T12:55:36;6.20;99.90
31967;DHT22;18496;52.042;6.812;2023-01-19T12:58:26;6.20;99.90
31967;DHT22;18496;52.042;6.812;2023-01-19T13:00:06;6.20;99.90
31967;DHT22;18496;52.042;6.812;2023-01-19T13:04:29;6.20;99.90
31967;DHT22;18496;52.042;6.812;2023-01-19T13:08:55;6.20;99.90
31967;DHT22;18496;52.042;6.812;2023-01-19T13:13:11;6.20;99.90
31967;DHT22;18496;52.042;6.812;2023-01-19T13:15:33;6.20;99.90
31967;DHT22;18496;52.042;6.812;2023-01-19T13:17:44;6.30;99.90
31967;DHT22;18496;52.042;6.812;2023-01-19T13:19:53;6.20;99.90
31967;DHT22;18496;52.042;6.812;2023-01-19T13:21:58;6.20;99.90
31967;DHT22;18496;52.042;6.812;2023-01-19T13:24:21;6.30;99.90
31967;DHT22;18496;52.042;6.812;2023-01-19T13:26:39;6.30;99.90
31967;DHT22;18496;52.042;6.812;2023-01-19T13:28:46;6.30;99.90
31967;DHT22;18496;52.042;6.812;2023-01-19T13:30:55;6.20;99.90
31967;DHT22;18496;52.042;6.812;2023-01-19T13:33:03;6.20;99.90
31967;DHT22;18496;52.042;6.812;2023-01-19T13:35:12;6.20;99.90
31967;DHT22;18496;52.042;6.812;2023-01-19T13:37:18;6.20;99.90
31967;DHT22;18496;52.042;6.812;2023-01-19T13:41:27;6.20;99.90
31967;DHT22;18496;52.042;6.812;2023-01-19T13:43:33;6.20;99.90
31967;DHT22;18496;52.042;6.812;2023-01-19T13:45:39;6.20;99.90
31967;DHT22;18496;52.042;6.812;2023-01-19T13:47:44;6.20;99.90
31967;DHT22;18496;52.042;6.812;2023-01-19T13:49:49;6.20;99.90
31967;DHT22;18496;52.042;6.812;2023-01-19T13:52:10;6.20;99.90
31967;DHT22;18496;52.042;6.812;2023-01-19T13:54:15;6.30;99.90
31967;DHT22;18496;52.042;6.812;2023-01-19T13:56:24;6.20;99.90
31967;DHT22;18496;52.042;6.812;2023-01-19T13:58:28;6.30;99.90
31967;DHT22;18496;52.042;6.812;2023-01-19T14:00:34;6.20;99.90
31967;DHT22;18496;52.042;6.812;2023-01-19T14:02:38;6.30;99.90
31967;DHT22;18496;52.042;6.812;2023-01-19T14:04:41;6.30;99.90
31967;DHT22;18496;52.042;6.812;2023-01-19T14:06:45;6.30;99.90
31967;DHT22;18496;52.042;6.812;2023-01-19T14:09:12;6.30;99.90
31967;DHT22;18496;52.042;6.812;2023-01-19T14:11:12;6.30;99.90
31967;DHT22;18496;52.042;6.812;2023-01-19T14:13:20;6.20;99.90
31967;DHT22;18496;52.042;6.812;2023-01-19T14:15:24;6.20;99.90
31967;DHT22;18496;52.042;6.812;2023-01-19T14:17:28;6.20;99.90
31967;DHT22;18496;52.042;6.812;2023-01-19T14:19:49;6.10;99.90
31967;DHT22;18496;52.042;6.812;2023-01-19T14:21:59;6.10;99.90
31967;DHT22;18496;52.042;6.812;2023-01-19T14:28:40;6.20;99.90